createdAt,value
2023-02-17T00:00:54.111Z,424.02
2023-02-17T00:04:03.939Z,428.81
2023-02-17T00:07:10.616Z,427.62
2023-02-17T00:10:16.562Z,428.68
2023-02-17T00:13:23.228Z,422.85
2023-02-17T00:16:32.331Z,421.58
2023-02-17T00:19:41.663Z,416.67
2023-02-17T00:22:47.568Z,407.81
2023-02-17T00:25:54.278Z,410.18
2023-02-17T00:29:02.084Z,422.37
2023-02-17T00:32:10.709Z,418.42
2023-02-17T00:35:19.882Z,434.96
2023-02-17T00:38:26.845Z,447.28
2023-02-17T00:41:33.802Z,455.99
2023-02-17T00:44:40.486Z,451.78
2023-02-17T00:47:46.255Z,457.90
2023-02-17T00:50:55.582Z,463.29
2023-02-17T00:54:01.417Z,470.49
2023-02-17T00:57:08.268Z,468.87
2023-02-17T01:00:16.083Z,470.72
2023-02-17T01:03:23.159Z,480.46
2023-02-17T01:06:36.807Z,473.72
2023-02-17T01:09:43.548Z,475.83
2023-02-17T01:12:49.370Z,469.53
2023-02-17T01:15:57.075Z,460.10
2023-02-17T01:19:03.686Z,466.76
2023-02-17T01:22:13.810Z,471.33
2023-02-17T01:25:19.830Z,455.62
2023-02-17T01:28:26.721Z,444.39
2023-02-17T01:31:39.447Z,445.35
2023-02-17T01:34:46.341Z,439.28
2023-02-17T01:37:54.778Z,441.09
2023-02-17T01:41:07.797Z,440.11
2023-02-17T01:44:21.987Z,439.28
2023-02-17T01:47:32.840Z,436.93
2023-02-17T01:50:48.222Z,437.64
2023-02-17T01:54:10.573Z,427.53
2023-02-17T01:57:26.786Z,422.04
2023-02-17T02:00:44.117Z,422.72
2023-02-17T02:03:53.576Z,415.86
2023-02-17T02:07:04.975Z,408.81
2023-02-17T02:10:17.562Z,412.63
2023-02-17T02:13:24.925Z,436.79
2023-02-17T02:16:49.803Z,449.87
2023-02-17T02:20:31.542Z,441.44
2023-02-17T02:24:08.319Z,396.63
2023-02-17T02:27:48.952Z,387.66
2023-02-17T02:31:27.705Z,379.23
2023-02-17T02:34:55.245Z,386.66
2023-02-17T02:38:12.218Z,382.00
2023-02-17T02:41:29.652Z,375.65
2023-02-17T02:44:35.599Z,372.39
2023-02-17T02:47:56.144Z,365.62
2023-02-17T02:51:35.564Z,378.42
2023-02-17T02:55:00.652Z,376.93
2023-02-17T02:58:22.401Z,374.76
2023-02-17T03:01:47.370Z,369.13
2023-02-17T03:05:14.249Z,364.51
2023-02-17T03:08:36.317Z,370.09
2023-02-17T03:11:49.129Z,370.09
2023-02-17T03:15:08.212Z,371.03
2023-02-17T03:18:14.424Z,355.61
2023-02-17T03:21:23.052Z,357.28
2023-02-17T03:24:36.463Z,353.42
2023-02-17T03:27:46.744Z,347.06
2023-02-17T03:30:53.794Z,347.86
2023-02-17T03:34:02.452Z,352.35
2023-02-17T03:37:08.274Z,353.80
2023-02-17T03:40:17.769Z,353.39
2023-02-17T03:43:23.877Z,358.71
2023-02-17T03:46:30.870Z,362.60
2023-02-17T03:49:36.927Z,374.71
2023-02-17T03:52:43.611Z,376.33
2023-02-17T03:55:52.220Z,361.42
2023-02-17T03:58:59.029Z,361.14
2023-02-17T04:02:04.925Z,362.84
2023-02-17T04:05:12.007Z,360.01
2023-02-17T04:08:18.019Z,360.70
2023-02-17T04:11:27.576Z,369.88
2023-02-17T04:14:33.507Z,367.98
2023-02-17T04:17:41.096Z,366.72
2023-02-17T04:20:47.385Z,364.45
2023-02-17T04:23:55.311Z,356.01
2023-02-17T04:27:03.937Z,363.75
2023-02-17T04:30:12.924Z,365.21
2023-02-17T04:33:20.344Z,381.40
2023-02-17T04:36:28.186Z,418.68
2023-02-17T04:39:34.100Z,442.46
2023-02-17T04:42:43.470Z,422.22
2023-02-17T04:45:49.344Z,403.35
2023-02-17T04:48:56.237Z,397.29
2023-02-17T04:52:02.360Z,432.88
2023-02-17T04:55:11.244Z,486.88
2023-02-17T04:58:20.958Z,408.19
2023-02-17T05:01:27.769Z,388.57
2023-02-17T05:04:34.395Z,381.12
2023-02-17T05:07:41.087Z,364.66
2023-02-17T05:10:47.385Z,372.63
2023-02-17T05:13:56.743Z,364.58
2023-02-17T05:17:02.627Z,378.58
2023-02-17T05:20:12.748Z,381.12
2023-02-17T05:23:18.706Z,389.43
2023-02-17T05:26:25.445Z,376.66
2023-02-17T05:29:33.972Z,374.71
2023-02-17T05:32:40.713Z,371.95
2023-02-17T05:35:46.608Z,365.02
2023-02-17T05:38:53.498Z,352.49
2023-02-17T05:41:59.472Z,361.50
2023-02-17T05:45:09.593Z,348.73
2023-02-17T05:48:15.686Z,353.93
2023-02-17T05:51:22.451Z,370.70
2023-02-17T05:54:28.374Z,381.14
2023-02-17T05:57:35.695Z,371.70
2023-02-17T06:00:44.195Z,388.02
2023-02-17T06:03:51.377Z,398.37
2023-02-17T06:06:57.303Z,418.67
2023-02-17T06:10:04.049Z,393.31
2023-02-17T06:13:09.953Z,397.28
2023-02-17T06:16:19.361Z,392.20
2023-02-17T06:19:25.228Z,393.46
2023-02-17T06:22:31.882Z,383.27
2023-02-17T06:25:37.788Z,377.57
2023-02-17T06:28:44.535Z,372.88
2023-02-17T06:31:53.207Z,355.61
2023-02-17T06:34:59.915Z,343.44
2023-02-17T06:38:05.832Z,347.14
2023-02-17T06:41:12.604Z,334.94
2023-02-17T06:44:18.502Z,337.39
2023-02-17T06:47:27.809Z,326.09
2023-02-17T06:50:33.704Z,322.61
2023-02-17T06:53:40.554Z,314.39
2023-02-17T06:56:46.781Z,300.70
2023-02-17T06:59:53.487Z,302.44
2023-02-17T07:03:02.123Z,303.20
2023-02-17T07:06:09.501Z,300.06
2023-02-17T07:09:15.449Z,305.65
2023-02-17T07:12:22.231Z,302.74
2023-02-17T07:15:28.510Z,306.38
2023-02-17T07:18:38.343Z,295.85
2023-02-17T07:21:44.446Z,306.89
2023-02-17T07:24:51.332Z,310.28
2023-02-17T07:27:57.343Z,310.04
2023-02-17T07:31:09.767Z,312.06
2023-02-17T07:34:18.336Z,302.93
2023-02-17T07:37:25.211Z,314.53
2023-02-17T07:40:31.994Z,323.04
2023-02-17T07:43:38.913Z,295.33
2023-02-17T07:46:45.042Z,290.53
2023-02-17T07:49:54.466Z,303.29
2023-02-17T07:53:00.347Z,304.70
2023-02-17T07:56:08.547Z,315.69
2023-02-17T07:59:16.396Z,306.01
2023-02-17T08:02:23.258Z,309.79
2023-02-17T08:05:31.911Z,328.44
2023-02-17T08:08:51.124Z,371.26
2023-02-17T08:12:09.606Z,364.87
2023-02-17T08:15:17.082Z,336.78
2023-02-17T08:18:23.058Z,343.54
2023-02-17T08:21:33.524Z,346.33
2023-02-17T08:24:39.389Z,343.73
2023-02-17T08:27:46.277Z,354.15
2023-02-17T08:30:52.177Z,306.12
2023-02-17T08:34:00.438Z,292.04
2023-02-17T08:37:10.238Z,314.22
2023-02-17T08:40:17.050Z,320.08
2023-02-17T08:43:22.905Z,328.64
2023-02-17T08:46:31.268Z,299.97
2023-02-17T08:49:37.341Z,286.69
2023-02-17T08:52:46.675Z,282.80
2023-02-17T08:55:52.460Z,277.62
2023-02-17T08:59:00.255Z,264.73
2023-02-17T09:02:06.320Z,271.13
2023-02-17T09:05:13.983Z,279.00
2023-02-17T09:08:23.466Z,283.87
2023-02-17T09:11:30.545Z,284.53
2023-02-17T09:14:36.828Z,294.97
2023-02-17T09:17:44.379Z,308.02
2023-02-17T09:20:50.520Z,274.72
2023-02-17T09:24:00.009Z,263.75
2023-02-17T09:27:06.100Z,289.46
2023-02-17T09:30:14.867Z,349.68
2023-02-17T09:33:20.801Z,369.28
2023-02-17T09:36:33.746Z,336.18
2023-02-17T09:39:42.334Z,287.21
2023-02-17T09:42:50.543Z,266.74
2023-02-17T09:46:04.369Z,262.09
2023-02-17T09:49:19.270Z,270.23
2023-02-17T09:52:36.537Z,281.17
2023-02-17T09:55:54.844Z,289.77
2023-02-17T09:59:10.343Z,258.15
2023-02-17T10:02:31.251Z,272.80
2023-02-17T10:05:45.562Z,264.97
2023-02-17T10:09:02.131Z,260.22
2023-02-17T10:12:18.889Z,271.83
2023-02-17T10:15:34.721Z,245.39
2023-02-17T10:18:50.619Z,245.28
2023-02-17T10:22:14.022Z,244.25
2023-02-17T10:25:28.226Z,245.49
2023-02-17T10:28:54.065Z,236.84
2023-02-17T10:32:22.484Z,248.20
2023-02-17T10:35:51.328Z,256.10
2023-02-17T10:39:09.614Z,255.76
2023-02-17T10:42:28.291Z,256.73
2023-02-17T10:45:41.397Z,251.13
2023-02-17T10:48:55.473Z,271.89
2023-02-17T10:52:09.062Z,278.02
2023-02-17T10:55:28.622Z,293.32
2023-02-17T10:58:44.357Z,270.52
2023-02-17T11:01:54.820Z,261.50
2023-02-17T11:05:00.822Z,237.74
2023-02-17T11:08:31.293Z,236.36
2023-02-17T11:11:40.033Z,256.99
2023-02-17T11:14:51.965Z,281.19
2023-02-17T11:18:11.910Z,254.63
2023-02-17T11:21:19.007Z,243.49
2023-02-17T11:24:25.549Z,273.20
2023-02-17T11:27:33.360Z,249.15
2023-02-17T11:30:41.715Z,226.23
2023-02-17T11:33:51.173Z,246.22
2023-02-17T11:37:07.236Z,229.68
2023-02-17T11:40:29.252Z,234.97
2023-02-17T11:43:36.031Z,246.83
2023-02-17T11:46:55.920Z,241.25
2023-02-17T11:50:41.277Z,231.24
2023-02-17T11:54:07.789Z,231.28
2023-02-17T11:57:39.260Z,253.47
2023-02-17T12:01:12.097Z,277.76
2023-02-17T12:04:30.975Z,273.31
2023-02-17T12:08:02.796Z,262.97
2023-02-17T12:11:32.181Z,270.38
2023-02-17T12:15:10.175Z,241.60
2023-02-17T12:18:42.397Z,250.45
2023-02-17T12:22:11.752Z,272.62
2023-02-17T12:25:31.150Z,316.31
2023-02-17T12:29:31.954Z,352.89
2023-02-17T12:33:08.193Z,284.81
2023-02-17T12:36:26.852Z,279.83
2023-02-17T12:39:44.690Z,268.13
2023-02-17T12:43:05.118Z,252.21
2023-02-17T12:46:23.280Z,238.58
2023-02-17T12:49:40.609Z,253.36
2023-02-17T12:53:03.678Z,247.26
2023-02-17T12:56:51.136Z,246.50
2023-02-17T13:00:05.616Z,247.72
2023-02-17T13:03:13.898Z,249.92
2023-02-17T13:06:39.452Z,249.26
2023-02-17T13:09:56.661Z,253.08
2023-02-17T13:13:21.274Z,265.15
2023-02-17T13:16:35.599Z,285.29
2023-02-17T13:19:42.267Z,261.79
2023-02-17T13:22:51.422Z,269.77
2023-02-17T13:26:29.373Z,265.25
2023-02-17T13:29:39.416Z,346.30
2023-02-17T13:33:08.917Z,324.95
2023-02-17T13:36:20.846Z,323.47
2023-02-17T13:39:41.792Z,277.56
2023-02-17T13:42:50.458Z,289.21
2023-02-17T13:46:10.955Z,330.97
2023-02-17T13:49:29.535Z,311.55
2023-02-17T13:52:36.111Z,341.43
2023-02-17T13:55:43.562Z,292.91
2023-02-17T13:58:49.412Z,261.22
2023-02-17T14:01:58.006Z,221.60
2023-02-17T14:05:21.850Z,209.95
2023-02-17T14:08:40.174Z,197.97
2023-02-17T14:11:46.304Z,203.41
2023-02-17T14:14:53.719Z,208.39
2023-02-17T14:18:00.275Z,209.93
2023-02-17T14:21:13.262Z,202.48
2023-02-17T14:24:32.201Z,227.38
2023-02-17T14:27:47.277Z,219.35
2023-02-17T14:30:54.713Z,218.11
2023-02-17T14:34:05.979Z,208.03
2023-02-17T14:37:31.173Z,215.12
2023-02-17T14:40:40.013Z,241.51
2023-02-17T14:43:46.056Z,229.16
2023-02-17T14:46:52.782Z,229.21
2023-02-17T14:49:58.737Z,231.42
2023-02-17T14:53:17.614Z,236.22
2023-02-17T14:56:32.671Z,251.18
2023-02-17T14:59:39.836Z,243.63
2023-02-17T15:02:45.987Z,244.39
2023-02-17T15:05:53.485Z,251.86
2023-02-17T15:09:04.275Z,280.67
2023-02-17T15:12:20.233Z,274.64
2023-02-17T15:15:26.575Z,272.39
2023-02-17T15:18:33.547Z,274.67
2023-02-17T15:21:43.239Z,275.15
2023-02-17T15:24:53.236Z,277.74
2023-02-17T15:27:59.504Z,277.99
2023-02-17T15:31:06.747Z,304.31
2023-02-17T15:34:18.970Z,265.31
2023-02-17T15:37:25.886Z,236.70
2023-02-17T15:40:34.908Z,249.65
2023-02-17T15:43:41.921Z,239.60
2023-02-17T15:46:49.066Z,223.95
2023-02-17T15:49:55.825Z,212.27
2023-02-17T15:53:02.728Z,194.49
2023-02-17T15:56:22.335Z,206.72
2023-02-17T15:59:31.123Z,197.61
2023-02-17T16:02:37.959Z,200.04
2023-02-17T16:05:45.537Z,204.09
2023-02-17T16:08:52.545Z,216.68
2023-02-17T16:12:01.815Z,208.79
2023-02-17T16:15:14.226Z,204.81
2023-02-17T16:18:26.009Z,214.70
2023-02-17T16:21:39.561Z,230.21
2023-02-17T16:24:47.031Z,221.94
2023-02-17T16:27:58.087Z,241.20
2023-02-17T16:31:13.822Z,208.24
2023-02-17T16:34:24.882Z,222.90
2023-02-17T16:37:30.968Z,225.47
2023-02-17T16:40:47.338Z,241.46
2023-02-17T16:43:58.942Z,221.37
2023-02-17T16:47:08.987Z,219.57
2023-02-17T16:50:27.126Z,212.41
2023-02-17T16:53:33.993Z,213.12
2023-02-17T16:56:46.496Z,217.37
2023-02-17T16:59:56.183Z,220.69
2023-02-17T17:03:04.998Z,193.10
2023-02-17T17:06:25.719Z,203.35
2023-02-17T17:09:31.636Z,194.48
2023-02-17T17:12:38.882Z,200.69
2023-02-17T17:15:49.084Z,197.32
2023-02-17T17:18:56.309Z,191.66
2023-02-17T17:22:04.960Z,195.52
2023-02-17T17:25:18.517Z,208.52
2023-02-17T17:28:26.562Z,207.86
2023-02-17T17:31:40.965Z,179.81
2023-02-17T17:34:47.176Z,181.65
2023-02-17T17:37:54.289Z,207.82
2023-02-17T17:41:00.292Z,190.73
2023-02-17T17:44:10.481Z,191.36
2023-02-17T17:47:29.821Z,196.04
2023-02-17T17:50:36.792Z,182.72
2023-02-17T17:53:42.892Z,186.66
2023-02-17T17:56:50.504Z,190.45
2023-02-17T17:59:58.172Z,186.07
2023-02-17T18:03:08.017Z,163.95
2023-02-17T18:06:21.886Z,162.51
2023-02-17T18:09:36.035Z,173.18
2023-02-17T18:12:45.334Z,179.68
2023-02-17T18:15:52.635Z,173.02
2023-02-17T18:19:06.091Z,194.54
2023-02-17T18:22:16.323Z,182.61
2023-02-17T18:25:23.200Z,177.12
2023-02-17T18:28:30.034Z,183.17
2023-02-17T18:31:38.120Z,182.81
2023-02-17T18:34:47.449Z,191.16
2023-02-17T18:37:53.915Z,184.82
2023-02-17T18:41:03.210Z,188.57
2023-02-17T18:44:11.207Z,184.90
2023-02-17T18:47:18.024Z,187.87
2023-02-17T18:50:27.107Z,182.23
2023-02-17T18:53:36.245Z,212.20
2023-02-17T18:56:42.326Z,213.08
2023-02-17T18:59:50.788Z,190.09
2023-02-17T19:03:03.484Z,187.48
2023-02-17T19:06:19.422Z,177.96
2023-02-17T19:09:25.306Z,198.19
2023-02-17T19:12:32.159Z,201.35
2023-02-17T19:15:38.161Z,187.51
2023-02-17T19:18:46.949Z,183.01
2023-02-17T19:21:56.093Z,190.14
2023-02-17T19:25:07.012Z,174.87
2023-02-17T19:28:13.134Z,178.34
2023-02-17T19:31:23.452Z,171.31
2023-02-17T19:34:31.357Z,182.65
2023-02-17T19:37:43.662Z,184.49
2023-02-17T19:40:50.658Z,182.42
2023-02-17T19:43:57.379Z,177.34
2023-02-17T19:47:05.007Z,187.55
2023-02-17T19:50:12.352Z,181.68
2023-02-17T19:53:27.601Z,178.17
2023-02-17T19:56:37.157Z,181.62
2023-02-17T19:59:43.017Z,180.65
2023-02-17T20:02:50.220Z,177.30
2023-02-17T20:05:56.179Z,179.66
2023-02-17T20:09:14.878Z,174.83
2023-02-17T20:12:21.939Z,205.24
2023-02-17T20:15:28.864Z,180.47
2023-02-17T20:18:34.772Z,174.56
2023-02-17T20:21:47.176Z,180.27
2023-02-17T20:24:55.720Z,167.23
2023-02-17T20:28:04.380Z,175.83
2023-02-17T20:31:11.980Z,205.92
2023-02-17T20:34:34.901Z,206.81
2023-02-17T20:37:40.748Z,213.20
2023-02-17T20:40:50.122Z,210.88
2023-02-17T20:43:56.344Z,208.30
2023-02-17T20:47:17.587Z,196.43
2023-02-17T20:50:26.171Z,186.21
2023-02-17T20:53:32.903Z,188.06
2023-02-17T20:56:45.376Z,206.00
2023-02-17T20:59:52.249Z,197.69
2023-02-17T21:02:58.590Z,169.17
2023-02-17T21:06:24.356Z,195.11
2023-02-17T21:09:30.698Z,198.23
2023-02-17T21:12:40.602Z,198.34
2023-02-17T21:15:46.794Z,193.76
2023-02-17T21:18:55.293Z,191.44
2023-02-17T21:22:01.522Z,202.85
2023-02-17T21:25:12.240Z,209.59
2023-02-17T21:28:25.445Z,199.24
2023-02-17T21:31:32.359Z,185.96
2023-02-17T21:34:42.032Z,193.57
2023-02-17T21:37:48.937Z,177.77
2023-02-17T21:40:55.033Z,151.16
2023-02-17T21:44:16.928Z,142.71
2023-02-17T21:47:26.912Z,138.29
2023-02-17T21:50:37.505Z,132.10
2023-02-17T21:53:43.790Z,132.15
2023-02-17T21:56:50.629Z,128.32
2023-02-17T21:59:59.245Z,146.67
2023-02-17T22:03:05.980Z,148.62
2023-02-17T22:06:22.435Z,136.54
2023-02-17T22:09:32.431Z,128.56
2023-02-17T22:12:39.842Z,142.36
2023-02-17T22:15:49.237Z,172.95
2023-02-17T22:18:55.457Z,170.88
2023-02-17T22:22:08.639Z,141.18
2023-02-17T22:25:33.526Z,114.59
2023-02-17T22:28:40.313Z,114.93
2023-02-17T22:31:50.630Z,111.85
2023-02-17T22:34:57.707Z,124.82
2023-02-17T22:38:03.702Z,127.90
2023-02-17T22:41:13.870Z,124.86
2023-02-17T22:44:20.023Z,130.10
2023-02-17T22:47:29.575Z,126.87
2023-02-17T22:50:35.547Z,117.43
2023-02-17T22:53:42.903Z,112.41
2023-02-17T22:56:48.945Z,114.05
2023-02-17T22:59:55.767Z,120.36
2023-02-17T23:03:04.374Z,122.85
2023-02-17T23:06:18.122Z,119.30
2023-02-17T23:09:24.064Z,131.50
2023-02-17T23:12:30.877Z,124.75
2023-02-17T23:15:42.562Z,125.66
2023-02-17T23:18:52.004Z,125.03
2023-02-17T23:22:03.187Z,125.99
2023-02-17T23:25:09.979Z,129.18
2023-02-17T23:28:16.010Z,142.28
2023-02-17T23:31:22.852Z,141.42
2023-02-17T23:34:32.183Z,154.43
2023-02-17T23:37:38.949Z,200.15
2023-02-17T23:40:45.561Z,239.53
2023-02-17T23:43:52.457Z,159.66
2023-02-17T23:46:58.286Z,118.10
2023-02-17T23:50:09.821Z,111.41
2023-02-17T23:53:15.896Z,110.61
2023-02-17T23:56:27.954Z,110.81
2023-02-17T23:59:40.667Z,121.10
